PWSweather.com
Personal Weather Stations
Station Observations
SEVANL01
SevillaES 41004

SevillaES 41004

Lat: 37.383633, Lon: -5.985787

Elevation: 19.685

Station Type: Davis Vantage Pro2

www.tiempoensevilla.es

High Low Average
Temperature 101.9°F38.8°C 78.3°F25.7°C 90.5°F32.5°C
Dew Point 67.6°F19.8°C 52.5°F11.4°C 60.0°F15.6°C
Winds 6.6 mph 10.6 kmh 0.6 mph 1.0 kmh 4.0 mph SSW6.4 kmh SSW
Wind Gusts 16.0 mph25.7 kmh 2.0 mph3.2 kmh 8.0 mph12.9 kmh
Humidity 66% 20% 39%
Pressure 29.94 in1013.9 mb 29.82 in1009.8 mb -
Precipitation 0.00 in0.0 mm - -
Hour Temp Dew Point Humidity Winds Wind Gusts Pressure Precip Precip Rate Daily Precip Total
12:00 AM 90.0°F32.2°C 61.7°F16.5°C 39% 2.4 mph ESE3.9 kmh ESE 4.0 mph6.4 kmh 29.89 in1012.2 mb 0.00 in0.0 mm 0.00 in0.0 mm 0.00 in0.0 mm
12:20 AM 89.0°F31.7°C 62.9°F17.2°C 42% 2.0 mph SW3.2 kmh SW 4.0 mph6.4 kmh 29.89 in1012.2 mb 0.00 in0.0 mm 0.00 in0.0 mm 0.00 in0.0 mm
12:40 AM 88.8°F31.6°C 62.7°F17.1°C 42% 1.0 mph SE1.6 kmh SE 3.0 mph4.8 kmh 29.89 in1012.2 mb 0.00 in0.0 mm 0.00 in0.0 mm 0.00 in0.0 mm
01:00 AM 88.3°F31.3°C 63.0°F17.2°C 43% 0.8 mph S1.3 kmh S 3.0 mph4.8 kmh 29.89 in1012.2 mb 0.00 in0.0 mm 0.00 in0.0 mm 0.00 in0.0 mm
01:20 AM 86.9°F30.5°C 63.6°F17.6°C 46% 1.5 mph SW2.4 kmh SW 2.0 mph3.2 kmh 29.88 in1011.9 mb 0.00 in0.0 mm 0.00 in0.0 mm 0.00 in0.0 mm
01:40 AM 86.6°F30.3°C 64.0°F17.8°C 47% 1.0 mph WSW1.6 kmh WSW 2.0 mph3.2 kmh 29.87 in1011.5 mb 0.00 in0.0 mm 0.00 in0.0 mm 0.00 in0.0 mm
02:00 AM 86.6°F30.3°C 64.6°F18.1°C 48% 0.7 mph N1.1 kmh N 4.0 mph6.4 kmh 29.86 in1011.2 mb 0.00 in0.0 mm 0.00 in0.0 mm 0.00 in0.0 mm
02:20 AM 86.8°F30.4°C 62.9°F17.2°C 45% 2.6 mph E4.2 kmh E 7.0 mph11.3 kmh 29.85 in1010.8 mb 0.00 in0.0 mm 0.00 in0.0 mm 0.00 in0.0 mm
02:40 AM 86.5°F30.3°C 63.3°F17.4°C 46% 0.6 mph W1.0 kmh W 2.0 mph3.2 kmh 29.86 in1011.2 mb 0.00 in0.0 mm 0.00 in0.0 mm 0.00 in0.0 mm
03:00 AM 83.5°F28.6°C 65.1°F18.4°C 54% 3.6 mph SSW5.8 kmh SSW 8.0 mph12.9 kmh 29.87 in1011.5 mb 0.00 in0.0 mm 0.00 in0.0 mm 0.00 in0.0 mm
03:20 AM 82.6°F28.1°C 64.8°F18.2°C 55% 3.2 mph SW5.1 kmh SW 8.0 mph12.9 kmh 29.87 in1011.5 mb 0.00 in0.0 mm 0.00 in0.0 mm 0.00 in0.0 mm
03:40 AM 81.0°F27.2°C 65.3°F18.5°C 59% 2.3 mph SSW3.7 kmh SSW 6.0 mph9.7 kmh 29.86 in1011.2 mb 0.00 in0.0 mm 0.00 in0.0 mm 0.00 in0.0 mm
04:00 AM 80.6°F27.0°C 65.4°F18.6°C 60% 1.8 mph SW2.9 kmh SW 3.0 mph4.8 kmh 29.85 in1010.8 mb 0.00 in0.0 mm 0.00 in0.0 mm 0.00 in0.0 mm
04:20 AM 79.9°F26.6°C 66.2°F19.0°C 63% 2.7 mph SW4.3 kmh SW 8.0 mph12.9 kmh 29.86 in1011.2 mb 0.00 in0.0 mm 0.00 in0.0 mm 0.00 in0.0 mm
04:40 AM 79.8°F26.6°C 67.4°F19.7°C 66% 2.4 mph SW3.9 kmh SW 5.0 mph8.0 kmh 29.86 in1011.2 mb 0.00 in0.0 mm 0.00 in0.0 mm 0.00 in0.0 mm
05:00 AM 80.0°F26.7°C 67.6°F19.8°C 66% 2.0 mph SW3.2 kmh SW 4.0 mph6.4 kmh 29.87 in1011.5 mb 0.00 in0.0 mm 0.00 in0.0 mm 0.00 in0.0 mm
05:20 AM 80.2°F26.8°C 66.9°F19.4°C 64% 1.8 mph NW2.9 kmh NW 4.0 mph6.4 kmh 29.87 in1011.5 mb 0.00 in0.0 mm 0.00 in0.0 mm 0.00 in0.0 mm
05:40 AM 79.4°F26.3°C 64.3°F17.9°C 60% 3.6 mph NNW5.8 kmh NNW 5.0 mph8.0 kmh 29.88 in1011.9 mb 0.00 in0.0 mm 0.00 in0.0 mm 0.00 in0.0 mm
06:00 AM 79.1°F26.2°C 62.6°F17.0°C 57% 2.0 mph NW3.2 kmh NW 5.0 mph8.0 kmh 29.89 in1012.2 mb 0.00 in0.0 mm 0.00 in0.0 mm 0.00 in0.0 mm
06:20 AM 79.3°F26.3°C 62.2°F16.8°C 56% 2.8 mph NNW4.5 kmh NNW 6.0 mph9.7 kmh 29.89 in1012.2 mb 0.00 in0.0 mm 0.00 in0.0 mm 0.00 in0.0 mm
06:40 AM 79.5°F26.4°C 62.4°F16.9°C 56% 3.8 mph NNW6.1 kmh NNW 9.0 mph14.5 kmh 29.89 in1012.2 mb 0.00 in0.0 mm 0.00 in0.0 mm 0.00 in0.0 mm
07:00 AM 78.6°F25.9°C 61.1°F16.2°C 55% 5.5 mph N8.9 kmh N 10.0 mph16.1 kmh 29.90 in1012.5 mb 0.00 in0.0 mm 0.00 in0.0 mm 0.00 in0.0 mm
07:20 AM 78.3°F25.7°C 60.3°F15.7°C 54% 4.3 mph NNW6.9 kmh NNW 8.0 mph12.9 kmh 29.90 in1012.5 mb 0.00 in0.0 mm 0.00 in0.0 mm 0.00 in0.0 mm
07:40 AM 79.4°F26.3°C 58.6°F14.8°C 49% 4.0 mph N6.4 kmh N 10.0 mph16.1 kmh 29.90 in1012.5 mb 0.00 in0.0 mm 0.00 in0.0 mm 0.00 in0.0 mm
08:00 AM 80.4°F26.9°C 57.7°F14.3°C 46% 5.6 mph NE9.0 kmh NE 13.0 mph20.9 kmh 29.91 in1012.9 mb 0.00 in0.0 mm 0.00 in0.0 mm 0.00 in0.0 mm
08:20 AM 81.3°F27.4°C 57.3°F14.1°C 44% 6.1 mph NE9.8 kmh NE 13.0 mph20.9 kmh 29.90 in1012.5 mb 0.00 in0.0 mm 0.00 in0.0 mm 0.00 in0.0 mm
08:40 AM 81.8°F27.7°C 57.8°F14.3°C 44% 6.3 mph NE10.1 kmh NE 11.0 mph17.7 kmh 29.90 in1012.5 mb 0.00 in0.0 mm 0.00 in0.0 mm 0.00 in0.0 mm
09:00 AM 83.7°F28.7°C 57.5°F14.2°C 41% 6.5 mph ENE10.5 kmh ENE 9.0 mph14.5 kmh 29.91 in1012.9 mb 0.00 in0.0 mm 0.00 in0.0 mm 0.00 in0.0 mm
09:20 AM 85.1°F29.5°C 58.8°F14.9°C 41% 4.7 mph NNE7.6 kmh NNE 10.0 mph16.1 kmh 29.91 in1012.9 mb 0.00 in0.0 mm 0.00 in0.0 mm 0.00 in0.0 mm
09:40 AM 85.8°F29.9°C 58.7°F14.8°C 40% 5.3 mph NNE8.5 kmh NNE 9.0 mph14.5 kmh 29.91 in1012.9 mb 0.00 in0.0 mm 0.00 in0.0 mm 0.00 in0.0 mm
10:00 AM 87.2°F30.7°C 59.2°F15.1°C 39% 5.0 mph ENE8.0 kmh ENE 10.0 mph16.1 kmh 29.91 in1012.9 mb 0.00 in0.0 mm 0.00 in0.0 mm 0.00 in0.0 mm
10:20 AM 89.1°F31.7°C 58.7°F14.8°C 36% 3.8 mph ENE6.1 kmh ENE 8.0 mph12.9 kmh 29.91 in1012.9 mb 0.00 in0.0 mm 0.00 in0.0 mm 0.00 in0.0 mm
10:40 AM 89.7°F32.1°C 58.4°F14.7°C 35% 4.7 mph NE7.6 kmh NE 8.0 mph12.9 kmh 29.91 in1012.9 mb 0.00 in0.0 mm 0.00 in0.0 mm 0.00 in0.0 mm
11:00 AM 91.6°F33.1°C 58.4°F14.7°C 33% 3.0 mph NE4.8 kmh NE 9.0 mph14.5 kmh 29.91 in1012.9 mb 0.00 in0.0 mm 0.00 in0.0 mm 0.00 in0.0 mm
11:20 AM 92.8°F33.8°C 57.7°F14.3°C 31% 4.0 mph ENE6.4 kmh ENE 8.0 mph12.9 kmh 29.91 in1012.9 mb 0.00 in0.0 mm 0.00 in0.0 mm 0.00 in0.0 mm
11:40 AM 94.9°F34.9°C 54.7°F12.6°C 26% 3.9 mph E6.3 kmh E 9.0 mph14.5 kmh 29.90 in1012.5 mb 0.00 in0.0 mm 0.00 in0.0 mm 0.00 in0.0 mm
12:00 PM 96.4°F35.8°C 53.7°F12.1°C 24% 4.0 mph ESE6.4 kmh ESE 10.0 mph16.1 kmh 29.90 in1012.5 mb 0.00 in0.0 mm 0.00 in0.0 mm 0.00 in0.0 mm
12:20 PM 98.0°F36.7°C 53.9°F12.2°C 23% 2.3 mph SSE3.7 kmh SSE 6.0 mph9.7 kmh 29.90 in1012.5 mb 0.00 in0.0 mm 0.00 in0.0 mm 0.00 in0.0 mm
12:40 PM 98.7°F37.1°C 54.5°F12.5°C 23% 2.5 mph SSW4.0 kmh SSW 7.0 mph11.3 kmh 29.90 in1012.5 mb 0.00 in0.0 mm 0.00 in0.0 mm 0.00 in0.0 mm
01:00 PM 98.9°F37.2°C 54.6°F12.6°C 23% 3.7 mph SSW6.0 kmh SSW 7.0 mph11.3 kmh 29.89 in1012.2 mb 0.00 in0.0 mm 0.00 in0.0 mm 0.00 in0.0 mm
01:20 PM 98.6°F37.0°C 56.7°F13.7°C 25% 4.7 mph SW7.6 kmh SW 11.0 mph17.7 kmh 29.89 in1012.2 mb 0.00 in0.0 mm 0.00 in0.0 mm 0.00 in0.0 mm
01:40 PM 100.1°F37.8°C 56.8°F13.8°C 24% 2.6 mph WSW4.2 kmh WSW 8.0 mph12.9 kmh 29.88 in1011.9 mb 0.00 in0.0 mm 0.00 in0.0 mm 0.00 in0.0 mm
02:00 PM 100.2°F37.9°C 55.7°F13.2°C 23% 3.3 mph WSW5.3 kmh WSW 9.0 mph14.5 kmh 29.88 in1011.9 mb 0.00 in0.0 mm 0.00 in0.0 mm 0.00 in0.0 mm
02:20 PM 100.8°F38.2°C 53.7°F12.1°C 21% 3.0 mph SSW4.8 kmh SSW 7.0 mph11.3 kmh 29.87 in1011.5 mb 0.00 in0.0 mm 0.00 in0.0 mm 0.00 in0.0 mm
02:40 PM 101.8°F38.8°C 53.2°F11.8°C 20% 3.3 mph WNW5.3 kmh WNW 8.0 mph12.9 kmh 29.87 in1011.5 mb 0.00 in0.0 mm 0.00 in0.0 mm 0.00 in0.0 mm
03:00 PM 100.9°F38.3°C 52.5°F11.4°C 20% 3.5 mph NNW5.6 kmh NNW 5.0 mph8.0 kmh 29.87 in1011.5 mb 0.00 in0.0 mm 0.00 in0.0 mm 0.00 in0.0 mm
03:20 PM 101.9°F38.8°C 57.1°F13.9°C 23% 2.6 mph SW4.2 kmh SW 8.0 mph12.9 kmh 29.87 in1011.5 mb 0.00 in0.0 mm 0.00 in0.0 mm 0.00 in0.0 mm
03:40 PM 100.4°F38.0°C 55.9°F13.3°C 23% 4.9 mph WNW7.9 kmh WNW 11.0 mph17.7 kmh 29.86 in1011.2 mb 0.00 in0.0 mm 0.00 in0.0 mm 0.00 in0.0 mm
04:00 PM 100.2°F37.9°C 55.7°F13.2°C 23% 5.2 mph WSW8.4 kmh WSW 12.0 mph19.3 kmh 29.86 in1011.2 mb 0.00 in0.0 mm 0.00 in0.0 mm 0.00 in0.0 mm
04:20 PM 100.4°F38.0°C 55.9°F13.3°C 23% 6.0 mph WSW9.7 kmh WSW 12.0 mph19.3 kmh 29.85 in1010.8 mb 0.00 in0.0 mm 0.00 in0.0 mm 0.00 in0.0 mm
04:40 PM 101.0°F38.3°C 57.6°F14.2°C 24% 4.8 mph SW7.7 kmh SW 10.0 mph16.1 kmh 29.85 in1010.8 mb 0.00 in0.0 mm 0.00 in0.0 mm 0.00 in0.0 mm
05:00 PM 101.6°F38.7°C 54.4°F12.4°C 21% 4.5 mph WSW7.2 kmh WSW 11.0 mph17.7 kmh 29.84 in1010.5 mb 0.00 in0.0 mm 0.00 in0.0 mm 0.00 in0.0 mm
05:20 PM 101.3°F38.5°C 54.1°F12.3°C 21% 4.0 mph WSW6.4 kmh WSW 9.0 mph14.5 kmh 29.84 in1010.5 mb 0.00 in0.0 mm 0.00 in0.0 mm 0.00 in0.0 mm
05:40 PM 100.3°F37.9°C 55.8°F13.2°C 23% 6.1 mph SW9.8 kmh SW 12.0 mph19.3 kmh 29.83 in1010.2 mb 0.00 in0.0 mm 0.00 in0.0 mm 0.00 in0.0 mm
06:00 PM 100.8°F38.2°C 56.2°F13.4°C 23% 5.3 mph SW8.5 kmh SW 9.0 mph14.5 kmh 29.82 in1009.8 mb 0.00 in0.0 mm 0.00 in0.0 mm 0.00 in0.0 mm
06:20 PM 101.5°F38.6°C 54.3°F12.4°C 21% 3.8 mph SW6.1 kmh SW 8.0 mph12.9 kmh 29.83 in1010.2 mb 0.00 in0.0 mm 0.00 in0.0 mm 0.00 in0.0 mm
06:40 PM 100.6°F38.1°C 54.8°F12.7°C 22% 5.1 mph SW8.2 kmh SW 11.0 mph17.7 kmh 29.83 in1010.2 mb 0.00 in0.0 mm 0.00 in0.0 mm 0.00 in0.0 mm
07:00 PM 99.8°F37.7°C 54.2°F12.3°C 22% 5.0 mph SW8.0 kmh SW 11.0 mph17.7 kmh 29.84 in1010.5 mb 0.00 in0.0 mm 0.00 in0.0 mm 0.00 in0.0 mm
07:20 PM 98.3°F36.8°C 59.6°F15.3°C 28% 6.0 mph SSW9.7 kmh SSW 11.0 mph17.7 kmh 29.84 in1010.5 mb 0.00 in0.0 mm 0.00 in0.0 mm 0.00 in0.0 mm
07:40 PM 96.6°F35.9°C 60.1°F15.6°C 30% 6.1 mph SW9.8 kmh SW 11.0 mph17.7 kmh 29.85 in1010.8 mb 0.00 in0.0 mm 0.00 in0.0 mm 0.00 in0.0 mm
08:00 PM 95.2°F35.1°C 62.4°F16.9°C 34% 5.5 mph SSW8.9 kmh SSW 10.0 mph16.1 kmh 29.85 in1010.8 mb 0.00 in0.0 mm 0.00 in0.0 mm 0.00 in0.0 mm
08:20 PM 94.3°F34.6°C 64.8°F18.2°C 38% 4.0 mph SSW6.4 kmh SSW 8.0 mph12.9 kmh 29.86 in1011.2 mb 0.00 in0.0 mm 0.00 in0.0 mm 0.00 in0.0 mm
08:40 PM 93.0°F33.9°C 63.6°F17.6°C 38% 6.6 mph WSW10.6 kmh WSW 16.0 mph25.7 kmh 29.87 in1011.5 mb 0.00 in0.0 mm 0.00 in0.0 mm 0.00 in0.0 mm
09:00 PM 91.8°F33.2°C 64.0°F17.8°C 40% 4.5 mph WNW7.2 kmh WNW 10.0 mph16.1 kmh 29.88 in1011.9 mb 0.00 in0.0 mm 0.00 in0.0 mm 0.00 in0.0 mm
09:20 PM 90.5°F32.5°C 64.3°F17.9°C 42% 4.5 mph WSW7.2 kmh WSW 12.0 mph19.3 kmh 29.89 in1012.2 mb 0.00 in0.0 mm 0.00 in0.0 mm 0.00 in0.0 mm
09:40 PM 89.6°F32.0°C 64.1°F17.8°C 43% 3.8 mph WSW6.1 kmh WSW 11.0 mph17.7 kmh 29.91 in1012.9 mb 0.00 in0.0 mm 0.00 in0.0 mm 0.00 in0.0 mm
10:00 PM 88.2°F31.2°C 65.4°F18.6°C 47% 4.3 mph NW6.9 kmh NW 12.0 mph19.3 kmh 29.92 in1013.2 mb 0.00 in0.0 mm 0.00 in0.0 mm 0.00 in0.0 mm
10:20 PM 87.3°F30.7°C 64.0°F17.8°C 46% 4.2 mph WNW6.8 kmh WNW 7.0 mph11.3 kmh 29.93 in1013.5 mb 0.00 in0.0 mm 0.00 in0.0 mm 0.00 in0.0 mm
10:40 PM 87.9°F31.1°C 63.3°F17.4°C 44% 3.0 mph SW4.8 kmh SW 7.0 mph11.3 kmh 29.93 in1013.5 mb 0.00 in0.0 mm 0.00 in0.0 mm 0.00 in0.0 mm
11:00 PM 87.4°F30.8°C 63.5°F17.5°C 45% 4.0 mph SW6.4 kmh SW 9.0 mph14.5 kmh 29.93 in1013.5 mb 0.00 in0.0 mm 0.00 in0.0 mm 0.00 in0.0 mm
11:20 PM 87.2°F30.7°C 63.3°F17.4°C 45% 3.4 mph SW5.5 kmh SW 8.0 mph12.9 kmh 29.93 in1013.5 mb 0.00 in0.0 mm 0.00 in0.0 mm 0.00 in0.0 mm
11:40 PM 86.9°F30.5°C 62.4°F16.9°C 44% 4.0 mph SW6.4 kmh SW 10.0 mph16.1 kmh 29.94 in1013.9 mb 0.00 in0.0 mm 0.00 in0.0 mm 0.00 in0.0 mm